createdAt,value
2022-10-29T00:01:42.334Z,7.85
2022-10-29T00:04:10.871Z,7.70
2022-10-29T00:06:39.473Z,9.13
2022-10-29T00:09:08.280Z,9.10
2022-10-29T00:11:36.849Z,8.40
2022-10-29T00:14:05.390Z,8.90
2022-10-29T00:16:39.214Z,9.10
2022-10-29T00:19:08.008Z,9.27
2022-10-29T00:21:38.204Z,9.77
2022-10-29T00:24:07.118Z,9.50
2022-10-29T00:26:35.605Z,10.18
2022-10-29T00:29:04.151Z,8.63
2022-10-29T00:31:32.674Z,8.98
2022-10-29T00:34:02.649Z,8.82
2022-10-29T00:36:31.469Z,8.90
2022-10-29T00:38:59.859Z,9.60
2022-10-29T00:41:29.616Z,8.63
2022-10-29T00:44:13.149Z,8.55
2022-10-29T00:46:43.012Z,8.70
2022-10-29T00:49:13.313Z,9.02
2022-10-29T00:51:41.888Z,8.52
2022-10-29T00:54:11.375Z,8.40
2022-10-29T00:56:41.136Z,8.85
2022-10-29T00:59:10.462Z,9.38
2022-10-29T01:01:39.393Z,8.95
2022-10-29T01:04:08.339Z,9.02
2022-10-29T01:06:38.176Z,9.02
2022-10-29T01:09:06.507Z,9.23
2022-10-29T01:11:42.771Z,9.43
2022-10-29T01:14:15.251Z,9.07
2022-10-29T01:16:48.893Z,8.97
2022-10-29T01:19:22.357Z,8.73
2022-10-29T01:21:55.071Z,8.77
2022-10-29T01:24:38.294Z,9.70
2022-10-29T01:27:21.483Z,9.13
2022-10-29T01:29:59.116Z,8.60
2022-10-29T01:32:33.055Z,8.07
2022-10-29T01:35:03.464Z,8.40
2022-10-29T01:37:34.526Z,9.13
2022-10-29T01:40:07.113Z,9.20
2022-10-29T01:42:38.348Z,8.80
2022-10-29T01:45:11.685Z,9.43
2022-10-29T01:47:44.298Z,9.00
2022-10-29T01:50:15.120Z,8.63
2022-10-29T01:52:45.299Z,9.10
2022-10-29T01:55:17.190Z,8.90
2022-10-29T01:57:45.626Z,9.37
2022-10-29T02:00:15.581Z,9.57
2022-10-29T02:02:49.161Z,9.70
2022-10-29T02:05:21.016Z,9.10
2022-10-29T02:07:51.979Z,9.53
2022-10-29T02:10:24.121Z,9.33
2022-10-29T02:12:54.264Z,9.30
2022-10-29T02:15:25.934Z,9.03
2022-10-29T02:18:00.225Z,9.70
2022-10-29T02:20:28.646Z,9.20
2022-10-29T02:22:57.113Z,9.43
2022-10-29T02:25:25.991Z,9.20
2022-10-29T02:27:54.830Z,8.93
2022-10-29T02:30:23.428Z,8.87
2022-10-29T02:32:51.789Z,9.07
2022-10-29T02:35:21.883Z,8.70
2022-10-29T02:37:50.325Z,8.90
2022-10-29T02:40:19.000Z,9.43
2022-10-29T02:42:47.384Z,9.53
2022-10-29T02:45:15.856Z,9.57
2022-10-29T02:47:44.286Z,9.00
2022-10-29T02:50:12.775Z,9.40
2022-10-29T02:52:43.242Z,9.00
2022-10-29T02:55:11.679Z,9.23
2022-10-29T02:57:40.139Z,9.53
2022-10-29T03:00:09.067Z,9.07
2022-10-29T03:02:37.599Z,10.03
2022-10-29T03:05:06.373Z,9.47
2022-10-29T03:07:37.325Z,9.10
2022-10-29T03:10:07.670Z,9.07
2022-10-29T03:12:36.131Z,9.20
2022-10-29T03:15:04.573Z,9.20
2022-10-29T03:17:33.019Z,9.40
2022-10-29T03:20:01.550Z,9.13
2022-10-29T03:22:30.015Z,9.87
2022-10-29T03:24:58.505Z,10.17
2022-10-29T03:27:28.192Z,9.47
2022-10-29T03:29:56.688Z,9.10
2022-10-29T03:32:25.151Z,8.67
2022-10-29T03:34:56.119Z,8.73
2022-10-29T03:37:28.169Z,8.70
2022-10-29T03:39:56.601Z,8.73
2022-10-29T03:42:25.099Z,9.30
2022-10-29T03:44:54.985Z,10.10
2022-10-29T03:47:23.475Z,9.30
2022-10-29T03:49:51.949Z,8.83
2022-10-29T03:52:25.535Z,9.23
2022-10-29T03:54:53.989Z,10.03
2022-10-29T03:57:22.406Z,9.37
2022-10-29T03:59:52.605Z,9.43
2022-10-29T04:02:22.841Z,9.27
2022-10-29T04:04:51.325Z,9.47
2022-10-29T04:07:19.708Z,9.30
2022-10-29T04:09:48.107Z,9.90
2022-10-29T04:12:16.479Z,9.23
2022-10-29T04:14:45.926Z,8.87
2022-10-29T04:17:14.650Z,8.77
2022-10-29T04:19:44.499Z,9.00
2022-10-29T04:30:56.674Z,9.97
2022-10-29T04:33:25.137Z,9.30
2022-10-29T04:35:56.012Z,11.77
2022-10-29T04:38:24.481Z,12.47
2022-10-29T04:40:52.962Z,12.07
2022-10-29T04:43:21.945Z,10.47
2022-10-29T04:45:53.329Z,10.57
2022-10-29T04:48:22.004Z,10.40
2022-10-29T04:50:50.980Z,9.30
2022-10-29T04:53:20.778Z,10.17
2022-10-29T04:55:49.011Z,9.83
2022-10-29T04:58:18.503Z,9.40
2022-10-29T05:00:47.116Z,9.87
2022-10-29T05:03:15.365Z,9.27
2022-10-29T05:05:43.569Z,9.90
2022-10-29T05:08:12.621Z,10.97
2022-10-29T05:11:03.098Z,10.57
2022-10-29T05:13:32.178Z,10.23
2022-10-29T05:16:00.427Z,10.43
2022-10-29T05:18:28.730Z,11.20
2022-10-29T05:20:57.210Z,11.20
2022-10-29T05:23:25.751Z,12.80
2022-10-29T05:25:57.263Z,12.00
2022-10-29T05:28:25.805Z,10.17
2022-10-29T05:30:54.779Z,11.67
2022-10-29T05:33:24.097Z,12.30
2022-10-29T05:35:52.660Z,11.00
2022-10-29T05:38:20.848Z,11.80
2022-10-29T05:40:49.004Z,10.63
2022-10-29T05:43:19.127Z,9.77
2022-10-29T05:45:47.353Z,11.17
2022-10-29T05:48:15.529Z,11.77
2022-10-29T05:50:43.703Z,11.00
2022-10-29T05:53:12.674Z,10.63
2022-10-29T05:55:40.850Z,11.60
2022-10-29T05:58:11.156Z,11.80
2022-10-29T06:00:41.520Z,11.47
2022-10-29T06:03:12.958Z,11.23
2022-10-29T06:05:53.859Z,11.93
2022-10-29T06:08:26.526Z,12.60
2022-10-29T06:10:54.720Z,12.20
2022-10-29T06:13:23.730Z,12.20
2022-10-29T06:15:58.266Z,11.40
2022-10-29T06:18:26.559Z,10.30
2022-10-29T06:20:54.752Z,10.63
2022-10-29T06:23:25.372Z,11.23
2022-10-29T06:25:55.296Z,22.43
2022-10-29T06:28:24.017Z,16.37
2022-10-29T06:30:53.559Z,12.20
2022-10-29T06:33:22.336Z,11.27
2022-10-29T06:35:50.651Z,12.27
2022-10-29T06:38:18.858Z,11.40
2022-10-29T06:40:54.171Z,10.60
2022-10-29T06:43:22.412Z,11.57
2022-10-29T06:45:50.898Z,11.10
2022-10-29T06:48:22.431Z,11.60
2022-10-29T06:50:50.984Z,11.60
2022-10-29T06:53:19.437Z,11.77
2022-10-29T06:55:47.732Z,12.20
2022-10-29T06:58:17.001Z,12.03
2022-10-29T07:00:45.646Z,12.03
2022-10-29T07:03:14.462Z,11.60
2022-10-29T07:05:44.371Z,11.60
2022-10-29T07:08:12.570Z,11.10
2022-10-29T07:10:41.268Z,11.20
2022-10-29T07:13:09.475Z,10.90
2022-10-29T07:15:37.682Z,10.93
2022-10-29T07:18:06.878Z,11.23
2022-10-29T07:20:35.876Z,12.30
2022-10-29T07:23:05.619Z,11.97
2022-10-29T07:25:34.197Z,10.97
2022-10-29T07:28:04.542Z,11.10
2022-10-29T07:30:32.860Z,11.47
2022-10-29T07:33:01.043Z,11.83
2022-10-29T07:35:29.250Z,12.17
2022-10-29T07:38:05.069Z,12.27
2022-10-29T07:40:40.293Z,11.27
2022-10-29T07:43:08.582Z,11.60
2022-10-29T07:45:36.846Z,11.03
2022-10-29T07:48:07.311Z,11.70
2022-10-29T07:50:35.770Z,12.60
2022-10-29T07:53:04.132Z,11.10
2022-10-29T07:55:32.340Z,11.57
2022-10-29T07:58:02.735Z,11.43
2022-10-29T08:00:31.042Z,11.87
2022-10-29T08:02:59.281Z,12.40
2022-10-29T08:05:28.140Z,13.30
2022-10-29T08:07:56.656Z,12.03
2022-10-29T08:10:25.112Z,13.30
2022-10-29T08:12:53.880Z,12.97
2022-10-29T08:15:23.682Z,12.90
2022-10-29T08:17:51.973Z,12.67
2022-10-29T08:20:20.527Z,11.87
2022-10-29T08:22:48.724Z,12.20
2022-10-29T08:25:17.556Z,11.47
2022-10-29T08:27:46.160Z,11.87
2022-10-29T08:30:15.402Z,12.20
2022-10-29T08:32:48.252Z,11.90
2022-10-29T08:35:16.620Z,12.50
2022-10-29T08:37:44.843Z,12.53
2022-10-29T08:40:15.534Z,12.97
2022-10-29T08:42:49.775Z,12.87
2022-10-29T08:45:22.136Z,13.70
2022-10-29T08:47:59.054Z,13.60
2022-10-29T08:50:30.516Z,13.27
2022-10-29T08:53:22.939Z,12.90
2022-10-29T08:55:48.154Z,13.40
2022-10-29T08:58:21.412Z,13.20
2022-10-29T09:00:51.215Z,13.80
2022-10-29T09:03:20.772Z,12.80
2022-10-29T09:05:52.094Z,11.87
2022-10-29T09:08:27.058Z,12.67
2022-10-29T09:10:56.491Z,11.87
2022-10-29T09:13:30.088Z,11.83
2022-10-29T09:16:25.389Z,12.20
2022-10-29T09:19:14.106Z,12.40
2022-10-29T09:21:47.607Z,12.70
2022-10-29T09:24:16.544Z,11.87
2022-10-29T09:26:49.439Z,12.97
2022-10-29T09:29:26.513Z,12.13
2022-10-29T09:31:56.520Z,12.57
2022-10-29T09:34:30.718Z,12.20
2022-10-29T09:36:58.919Z,11.57
2022-10-29T09:39:33.882Z,11.63
2022-10-29T09:42:03.348Z,11.73
2022-10-29T09:44:35.296Z,11.07
2022-10-29T09:47:11.676Z,10.40
2022-10-29T09:49:48.882Z,11.00
2022-10-29T09:52:19.082Z,10.90
2022-10-29T09:54:47.744Z,11.30
2022-10-29T09:57:18.409Z,10.48
2022-10-29T09:59:49.017Z,9.88
2022-10-29T10:02:23.951Z,10.10
2022-10-29T10:04:56.839Z,10.65
2022-10-29T10:07:25.051Z,11.00
2022-10-29T10:09:57.095Z,11.10
2022-10-29T10:12:27.926Z,10.27
2022-10-29T10:15:06.891Z,10.27
2022-10-29T10:17:54.088Z,9.98
2022-10-29T10:20:32.279Z,10.05
2022-10-29T10:23:00.797Z,9.80
2022-10-29T10:25:36.628Z,9.80
2022-10-29T10:28:05.782Z,9.27
2022-10-29T10:30:34.078Z,9.57
2022-10-29T10:33:13.146Z,10.18
2022-10-29T10:35:43.013Z,9.45
2022-10-29T10:38:11.859Z,9.63
2022-10-29T10:40:40.165Z,9.40
2022-10-29T10:43:09.123Z,9.02
2022-10-29T10:45:39.137Z,8.57
2022-10-29T10:48:10.178Z,8.90
2022-10-29T10:50:39.053Z,8.05
2022-10-29T10:53:17.595Z,7.78
2022-10-29T10:55:48.790Z,7.82
2022-10-29T10:58:21.096Z,7.47
2022-10-29T11:00:51.407Z,7.70
2022-10-29T11:05:56.642Z,8.23
2022-10-29T11:08:28.937Z,6.60
2022-10-29T11:10:58.938Z,6.13
2022-10-29T11:13:30.239Z,5.97
2022-10-29T11:16:00.178Z,5.45
2022-10-29T11:18:32.425Z,5.35
2022-10-29T11:21:05.457Z,6.05
2022-10-29T11:23:41.662Z,5.20
2022-10-29T11:26:13.330Z,5.03
2022-10-29T11:28:42.953Z,5.13
2022-10-29T11:31:14.682Z,5.32
2022-10-29T11:33:47.215Z,5.30
2022-10-29T11:36:20.894Z,4.93
2022-10-29T11:38:52.621Z,5.22
2022-10-29T11:41:25.342Z,4.85
2022-10-29T11:43:53.836Z,5.03
2022-10-29T11:46:26.231Z,5.20
2022-10-29T11:49:01.163Z,5.53
2022-10-29T11:51:33.356Z,5.20
2022-10-29T11:54:05.267Z,5.60
2022-10-29T11:56:52.539Z,7.13
2022-10-29T11:59:24.864Z,5.93
2022-10-29T12:01:59.271Z,4.78
2022-10-29T12:04:29.387Z,5.15
2022-10-29T12:07:02.181Z,5.32
2022-10-29T12:09:38.474Z,5.30
2022-10-29T12:12:13.187Z,4.95
2022-10-29T12:14:45.861Z,4.95
2022-10-29T12:17:16.027Z,5.25
2022-10-29T12:19:49.432Z,5.28
2022-10-29T12:22:26.825Z,4.88
2022-10-29T12:25:19.945Z,4.72
2022-10-29T12:27:56.555Z,5.35
2022-10-29T12:30:26.014Z,5.63
2022-10-29T12:33:04.464Z,4.97
2022-10-29T12:35:35.782Z,5.10
2022-10-29T12:38:23.117Z,5.18
2022-10-29T12:40:53.665Z,5.68
2022-10-29T12:43:24.847Z,6.18
2022-10-29T12:46:19.127Z,5.75
2022-10-29T12:48:52.848Z,5.63
2022-10-29T12:51:29.442Z,5.53
2022-10-29T12:54:09.275Z,5.53
2022-10-29T12:56:47.750Z,5.47
2022-10-29T12:59:37.412Z,4.80
2022-10-29T13:02:35.399Z,5.03
2022-10-29T13:05:22.405Z,5.10
2022-10-29T13:08:21.041Z,4.85
2022-10-29T13:10:57.226Z,5.57
2022-10-29T13:13:41.494Z,5.03
2022-10-29T13:16:16.145Z,5.20
2022-10-29T13:18:54.758Z,5.97
2022-10-29T13:21:42.264Z,5.25
2022-10-29T13:24:18.508Z,5.00
2022-10-29T13:26:57.168Z,4.90
2022-10-29T13:29:49.355Z,4.95
2022-10-29T13:32:34.852Z,4.80
2022-10-29T13:35:04.427Z,4.85
2022-10-29T13:37:54.661Z,5.07
2022-10-29T13:40:42.008Z,5.13
2022-10-29T13:43:19.760Z,5.18
2022-10-29T13:45:51.080Z,4.53
2022-10-29T13:48:24.376Z,4.95
2022-10-29T13:50:53.374Z,5.45
2022-10-29T13:53:25.224Z,5.18
2022-10-29T13:55:53.751Z,4.60
2022-10-29T13:58:28.136Z,4.93
2022-10-29T14:00:58.781Z,5.20
2022-10-29T14:03:31.664Z,5.43
2022-10-29T14:06:02.582Z,4.80
2022-10-29T14:08:36.694Z,4.82
2022-10-29T14:11:09.756Z,4.82
2022-10-29T14:13:46.379Z,5.05
2022-10-29T14:16:16.586Z,4.57
2022-10-29T14:18:48.227Z,5.65
2022-10-29T14:21:19.961Z,5.65
2022-10-29T14:24:01.307Z,4.82
2022-10-29T14:26:31.001Z,4.65
2022-10-29T14:29:14.711Z,4.53
2022-10-29T14:31:43.574Z,4.60
2022-10-29T14:34:23.702Z,4.55
2022-10-29T14:36:53.055Z,4.50
2022-10-29T14:39:25.822Z,4.80
2022-10-29T14:41:55.708Z,4.47
2022-10-29T14:44:29.179Z,5.45
2022-10-29T14:47:06.340Z,4.63
2022-10-29T14:49:35.841Z,5.05
2022-10-29T14:52:05.362Z,5.35
2022-10-29T14:54:34.907Z,7.47
2022-10-29T14:57:04.551Z,6.93
2022-10-29T14:59:35.675Z,5.22
2022-10-29T15:02:31.943Z,4.78
2022-10-29T15:05:01.723Z,5.10
2022-10-29T15:07:35.695Z,5.05
2022-10-29T15:10:10.961Z,5.07
2022-10-29T15:12:40.683Z,4.63
2022-10-29T15:15:14.073Z,4.60
2022-10-29T15:17:49.266Z,7.85
2022-10-29T15:20:21.803Z,6.05
2022-10-29T15:22:56.970Z,6.88
2022-10-29T15:25:28.668Z,5.07
2022-10-29T15:27:57.632Z,4.65
2022-10-29T15:30:36.599Z,4.65
2022-10-29T15:33:08.372Z,5.00
2022-10-29T15:35:37.619Z,4.75
2022-10-29T15:38:06.353Z,4.93
2022-10-29T15:40:35.217Z,5.43
2022-10-29T15:43:18.591Z,5.03
2022-10-29T15:45:59.711Z,4.60
2022-10-29T15:48:35.689Z,4.50
2022-10-29T15:51:06.018Z,5.35
2022-10-29T15:53:36.506Z,4.50
2022-10-29T15:56:06.928Z,4.75
2022-10-29T15:58:43.017Z,5.93
2022-10-29T16:01:15.056Z,5.30
2022-10-29T16:03:44.517Z,5.70
2022-10-29T16:06:13.552Z,5.78
2022-10-29T16:08:43.553Z,5.28
2022-10-29T16:11:14.717Z,4.63
2022-10-29T16:13:44.128Z,5.03
2022-10-29T16:16:14.969Z,4.82
2022-10-29T16:18:43.846Z,5.13
2022-10-29T16:21:14.651Z,9.10
2022-10-29T16:23:43.416Z,18.98
2022-10-29T16:26:16.216Z,12.27
2022-10-29T16:28:45.244Z,7.18
2022-10-29T16:31:21.201Z,7.05
2022-10-29T16:33:55.901Z,8.10
2022-10-29T16:36:26.678Z,7.93
2022-10-29T16:38:55.274Z,5.97
2022-10-29T16:41:24.178Z,6.13
2022-10-29T16:43:53.179Z,6.57
2022-10-29T16:46:23.473Z,6.00
2022-10-29T16:48:52.055Z,6.72
2022-10-29T16:51:20.823Z,5.18
2022-10-29T16:53:50.369Z,5.35
2022-10-29T16:56:19.326Z,6.18
2022-10-29T16:58:47.852Z,5.85
2022-10-29T17:01:16.851Z,7.60
2022-10-29T17:03:47.534Z,10.02
2022-10-29T17:06:16.070Z,9.40
2022-10-29T17:08:45.132Z,14.48
2022-10-29T17:11:13.756Z,14.90
2022-10-29T17:13:42.276Z,9.40
2022-10-29T17:16:11.231Z,9.07
2022-10-29T17:18:41.709Z,9.82
2022-10-29T17:21:22.922Z,10.95
2022-10-29T17:23:51.610Z,10.68
2022-10-29T17:26:20.144Z,9.32
2022-10-29T17:28:50.786Z,9.63
2022-10-29T17:31:37.354Z,11.75
2022-10-29T17:34:06.309Z,13.57
2022-10-29T17:36:41.052Z,10.63
2022-10-29T17:39:10.529Z,10.68
2022-10-29T17:41:39.752Z,10.90
2022-10-29T17:44:15.341Z,12.77
2022-10-29T17:46:43.792Z,10.63
2022-10-29T17:49:12.507Z,13.68
2022-10-29T17:51:42.784Z,11.13
2022-10-29T17:54:11.380Z,10.82
2022-10-29T17:56:40.199Z,9.93
2022-10-29T17:59:13.137Z,11.02
2022-10-29T18:02:06.274Z,10.95
2022-10-29T18:04:35.326Z,12.30
2022-10-29T18:07:05.567Z,10.25
2022-10-29T18:09:33.999Z,10.43
2022-10-29T18:12:02.385Z,9.10
2022-10-29T18:14:30.765Z,9.63
2022-10-29T18:16:59.523Z,10.68
2022-10-29T18:19:27.920Z,11.35
2022-10-29T18:21:56.398Z,12.02
2022-10-29T18:24:26.824Z,11.80
2022-10-29T18:26:55.571Z,10.00
2022-10-29T18:29:25.232Z,9.10
2022-10-29T18:31:54.117Z,9.93
2022-10-29T18:34:23.525Z,9.05
2022-10-29T18:36:52.133Z,8.95
2022-10-29T18:39:20.789Z,7.97
2022-10-29T18:41:51.124Z,7.80
2022-10-29T18:44:19.759Z,8.63
2022-10-29T18:46:48.419Z,8.50
2022-10-29T18:49:17.158Z,8.88
2022-10-29T18:51:46.915Z,8.98
2022-10-29T18:54:15.859Z,8.60
2022-10-29T18:56:47.509Z,9.40
2022-10-29T18:59:17.520Z,8.88
2022-10-29T19:01:46.167Z,9.32
2022-10-29T19:04:16.601Z,8.77
2022-10-29T19:06:45.122Z,7.43
2022-10-29T19:09:15.172Z,8.68
2022-10-29T19:11:43.841Z,8.18
2022-10-29T19:14:14.327Z,8.05
2022-10-29T19:16:44.383Z,7.95
2022-10-29T19:19:16.040Z,9.25
2022-10-29T19:21:47.121Z,11.63
2022-10-29T19:24:16.354Z,15.20
2022-10-29T19:26:45.366Z,13.00
2022-10-29T19:29:15.673Z,8.43
2022-10-29T19:31:46.404Z,7.57
2022-10-29T19:34:14.878Z,8.75
2022-10-29T19:36:43.349Z,8.68
2022-10-29T19:39:11.980Z,8.30
2022-10-29T19:41:41.048Z,8.43
2022-10-29T19:44:09.708Z,8.93
2022-10-29T19:46:38.289Z,8.43
2022-10-29T19:49:08.378Z,7.93
2022-10-29T19:51:36.900Z,8.52
2022-10-29T19:54:07.286Z,7.70
2022-10-29T19:56:35.907Z,7.35
2022-10-29T19:59:05.336Z,7.70
2022-10-29T20:01:33.947Z,7.50
2022-10-29T20:04:02.573Z,7.57
2022-10-29T20:06:32.752Z,6.88
2022-10-29T20:09:01.309Z,7.45
2022-10-29T20:11:30.221Z,6.88
2022-10-29T20:13:58.654Z,7.50
2022-10-29T20:16:27.444Z,8.45
2022-10-29T20:18:56.411Z,8.60
2022-10-29T20:21:25.386Z,7.85
2022-10-29T20:23:56.517Z,7.07
2022-10-29T20:26:25.695Z,7.47
2022-10-29T20:28:57.098Z,7.78
2022-10-29T20:31:29.978Z,7.88
2022-10-29T20:33:59.956Z,6.00
2022-10-29T20:36:30.049Z,6.50
2022-10-29T20:39:01.823Z,6.25
2022-10-29T20:41:30.658Z,6.38
2022-10-29T20:43:59.622Z,5.65
2022-10-29T20:46:28.702Z,5.82
2022-10-29T20:48:57.849Z,5.85
2022-10-29T20:51:26.818Z,6.28
2022-10-29T20:53:55.912Z,5.70
2022-10-29T20:56:26.841Z,6.32
2022-10-29T20:58:55.517Z,6.38
2022-10-29T21:01:25.864Z,6.10
2022-10-29T21:03:54.554Z,5.68
2022-10-29T21:06:23.267Z,5.50
2022-10-29T21:08:53.880Z,5.53
2022-10-29T21:11:23.433Z,5.60
2022-10-29T21:13:53.484Z,5.78
2022-10-29T21:16:23.090Z,5.03
2022-10-29T21:18:52.872Z,4.72
2022-10-29T21:21:21.795Z,4.75
2022-10-29T21:23:50.557Z,4.70
2022-10-29T21:26:20.151Z,5.05
2022-10-29T21:28:49.276Z,5.32
2022-10-29T21:31:19.766Z,5.03
2022-10-29T21:33:51.163Z,4.72
2022-10-29T21:36:19.766Z,4.65
2022-10-29T21:38:49.175Z,5.15
2022-10-29T21:41:18.974Z,4.57
2022-10-29T21:43:47.662Z,4.80
2022-10-29T21:46:16.109Z,5.00
2022-10-29T21:48:46.026Z,5.20
2022-10-29T21:51:15.655Z,4.70
2022-10-29T21:53:44.460Z,4.82
2022-10-29T21:56:13.765Z,5.13
2022-10-29T21:58:42.366Z,5.65
2022-10-29T22:01:12.198Z,5.28
2022-10-29T22:03:41.865Z,5.10
2022-10-29T22:06:12.614Z,5.30
2022-10-29T22:08:41.311Z,5.10
2022-10-29T22:11:10.070Z,5.07
2022-10-29T22:13:38.706Z,4.57
2022-10-29T22:16:08.874Z,5.00
2022-10-29T22:18:38.345Z,4.82
2022-10-29T22:21:08.115Z,5.10
2022-10-29T22:23:38.976Z,5.00
2022-10-29T22:26:07.494Z,5.22
2022-10-29T22:28:36.008Z,5.45
2022-10-29T22:31:05.589Z,5.05
2022-10-29T22:33:34.699Z,4.93
2022-10-29T22:36:07.264Z,5.90
2022-10-29T22:38:35.972Z,5.15
2022-10-29T22:41:10.282Z,5.47
2022-10-29T22:43:39.333Z,5.88
2022-10-29T22:46:08.531Z,5.13
2022-10-29T22:48:37.283Z,5.63
2022-10-29T22:51:06.658Z,5.45
2022-10-29T22:53:35.794Z,5.40
2022-10-29T22:56:04.404Z,5.30
2022-10-29T22:58:34.787Z,5.68
2022-10-29T23:01:04.400Z,5.28
2022-10-29T23:03:32.656Z,5.93
2022-10-29T23:06:01.348Z,5.15
2022-10-29T23:08:29.949Z,5.38
2022-10-29T23:10:58.170Z,5.75
2022-10-29T23:13:26.426Z,5.35
2022-10-29T23:15:56.001Z,5.25
2022-10-29T23:18:24.247Z,5.32
2022-10-29T23:20:59.757Z,5.80
2022-10-29T23:23:27.975Z,5.85
2022-10-29T23:26:00.780Z,5.45
2022-10-29T23:28:29.032Z,5.55
2022-10-29T23:30:59.004Z,5.68
2022-10-29T23:33:27.277Z,5.95
2022-10-29T23:35:55.459Z,5.45
2022-10-29T23:38:23.832Z,5.88
2022-10-29T23:40:52.027Z,5.47
2022-10-29T23:43:20.239Z,5.80
2022-10-29T23:45:48.440Z,5.47
2022-10-29T23:48:18.112Z,5.63
2022-10-29T23:50:46.640Z,6.05
2022-10-29T23:53:15.131Z,5.75
2022-10-29T23:55:43.766Z,6.55
2022-10-29T23:58:12.685Z,5.72
